Time;durP1;ratioP1;P1;durP2;ratioP2;P2;SDS_P1;SDS_P2;PMS_P1;PMS_P2;Temp;Humidity;BMP_temperature;BMP_pressure;BME280_temperature;BME280_humidity;BME280_pressure;Samples;Min_cycle;Max_cycle;Signal;HPM_P1;HPM_P2
2022/10/24 00:00:58;;;;;;;12.60;4.47;;;;;;;15.36;89.12;100342.75;5082699;28;20024;-66
2022/10/24 00:03:24;;;;;;;11.07;3.95;;;;;;;15.35;88.60;100330.53;5082502;28;20028;-66
2022/10/24 00:05:50;;;;;;;16.98;4.15;;;;;;;15.35;87.97;100327.91;5082685;28;20045;-66
2022/10/24 00:08:16;;;;;;;16.15;4.65;;;;;;;15.34;87.67;100331.38;5082450;28;20039;-66
2022/10/24 00:10:45;;;;;;;15.80;4.63;;;;;;;15.36;87.25;100332.25;5082641;28;20215;-67
2022/10/24 00:13:12;;;;;;;15.77;4.00;;;;;;;15.37;87.16;100325.25;5082650;28;20028;-66
2022/10/24 00:15:37;;;;;;;16.98;4.50;;;;;;;15.36;87.10;100319.13;5082769;28;20338;-66
2022/10/24 00:18:03;;;;;;;14.48;4.10;;;;;;;15.38;86.44;100329.59;5084889;28;20036;-73
2022/10/24 00:20:28;;;;;;;9.85;3.60;;;;;;;15.38;86.11;100313.84;5086561;28;20021;-73
2022/10/24 00:22:54;;;;;;;15.75;4.05;;;;;;;15.38;86.18;100320.00;5086427;28;20027;-72
2022/10/24 00:25:19;;;;;;;12.23;3.97;;;;;;;15.39;85.74;100320.88;5086259;28;20016;-73
2022/10/24 00:27:44;;;;;;;9.77;3.75;;;;;;;15.41;84.83;100324.34;5086364;28;20115;-73
2022/10/24 00:30:10;;;;;;;15.77;4.38;;;;;;;15.40;84.83;100315.59;5086095;28;20090;-73
2022/10/24 00:32:36;;;;;;;12.10;3.85;;;;;;;15.42;84.38;100319.09;5086273;28;20017;-72
2022/10/24 00:35:01;;;;;;;16.42;4.45;;;;;;;15.42;84.00;100321.69;5086429;28;20020;-73
2022/10/24 00:37:27;;;;;;;13.07;4.03;;;;;;;15.42;84.52;100316.47;5086212;28;20029;-73
2022/10/24 00:39:52;;;;;;;13.45;4.10;;;;;;;15.42;84.43;100316.47;5086275;28;20031;-72
2022/10/24 00:42:17;;;;;;;14.38;4.40;;;;;;;15.42;84.04;100312.97;5086011;28;20043;-74
2022/10/24 00:44:44;;;;;;;15.57;4.57;;;;;;;15.42;83.63;100312.97;5086059;28;20040;-73
2022/10/24 00:47:14;;;;;;;16.33;4.93;;;;;;;15.40;84.07;100317.38;5086033;28;20236;-66
2022/10/24 00:49:42;;;;;;;10.77;4.53;;;;;;;15.40;83.68;100306.88;5086030;28;20040;-66
2022/10/24 00:52:09;;;;;;;13.90;4.35;;;;;;;15.38;83.98;100303.34;5085943;28;20032;-66
2022/10/24 00:54:37;;;;;;;11.60;4.63;;;;;;;15.36;83.45;100306.00;5085967;28;20029;-66
2022/10/24 00:57:21;;;;;;;12.35;4.68;;;;;;;15.35;83.47;100314.78;5084712;28;20246;-66
2022/10/24 00:59:50;;;;;;;16.50;5.20;;;;;;;15.33;82.98;100300.75;5086078;28;20024;-66
2022/10/24 01:02:15;;;;;;;12.10;4.40;;;;;;;15.35;83.21;100299.03;5085736;28;20141;-66
2022/10/24 01:04:41;;;;;;;14.57;5.15;;;;;;;15.33;83.34;100305.16;5085971;28;20327;-66
2022/10/24 01:07:38;;;;;;;12.85;4.88;;;;;;;15.33;83.57;100307.78;5085692;28;20179;-66
2022/10/24 01:10:25;;;;;;;14.73;5.43;;;;;;;15.32;83.11;100298.16;5085729;28;20032;-66
2022/10/24 01:13:30;;;;;;;12.30;5.13;;;;;;;15.32;83.10;100296.38;5085767;28;20020;-66
2022/10/24 01:16:09;;;;;;;18.27;6.70;;;;;;;15.34;81.94;100305.13;5085709;28;20278;-66
2022/10/24 01:18:43;;;;;;;19.48;6.32;;;;;;;15.34;82.13;100301.63;5086020;28;20028;-66
2022/10/24 01:21:23;;;;;;;18.27;6.43;;;;;;;15.34;81.86;100297.25;5085483;28;20164;-66
2022/10/24 01:24:19;;;;;;;18.52;5.60;;;;;;;15.35;81.87;100298.13;5085588;28;20013;-65
2022/10/24 01:27:11;;;;;;;11.25;5.30;;;;;;;15.35;81.64;100295.50;5085246;28;20029;-66
2022/10/24 01:29:47;;;;;;;15.48;5.07;;;;;;;15.36;81.40;100292.00;5084016;28;20039;-66
2022/10/24 01:32:21;;;;;;;13.77;5.40;;;;;;;15.35;80.66;100278.03;5084011;28;20048;-66
2022/10/24 01:34:55;;;;;;;19.55;5.60;;;;;;;15.36;80.57;100287.63;5085220;28;20024;-66
2022/10/24 01:37:25;;;;;;;14.07;5.55;;;;;;;15.37;80.25;100286.75;5085129;28;20020;-66
2022/10/24 01:39:55;;;;;;;18.20;5.72;;;;;;;15.39;79.90;100290.22;5085108;28;20036;-66
2022/10/24 01:42:23;;;;;;;14.45;5.15;;;;;;;15.41;79.68;100288.47;5084937;28;20180;-66
2022/10/24 01:44:53;;;;;;;14.23;5.20;;;;;;;15.39;80.09;100284.09;5083932;28;20040;-66
2022/10/24 01:47:23;;;;;;;16.52;5.60;;;;;;;15.37;79.82;100283.25;5085230;28;20096;-72
2022/10/24 01:49:56;;;;;;;14.30;5.10;;;;;;;15.36;79.21;100278.88;5085099;28;20051;-73
2022/10/24 01:52:24;;;;;;;11.88;5.10;;;;;;;15.35;79.28;100272.78;5085027;28;20195;-73
2022/10/24 01:54:50;;;;;;;13.70;5.18;;;;;;;15.35;79.47;100272.78;5084904;28;20031;-73
2022/10/24 01:57:16;;;;;;;11.63;4.60;;;;;;;15.33;78.92;100266.63;5069938;28;20218;-73
2022/10/24 01:59:47;;;;;;;10.13;4.60;;;;;;;15.35;78.90;100269.25;5084900;28;20025;-73
2022/10/24 02:02:22;;;;;;;11.75;4.47;;;;;;;15.37;78.98;100270.13;5084831;28;20066;-73
2022/10/24 02:05:21;;;;;;;12.82;4.40;;;;;;;15.37;79.56;100268.38;5084587;28;20251;-72
2022/10/24 02:07:52;;;;;;;13.18;4.57;;;;;;;15.35;78.59;100275.41;5081781;28;20313;-73
2022/10/24 02:10:28;;;;;;;8.23;4.00;;;;;;;15.35;77.79;100267.53;5084592;28;20043;-73
2022/10/24 02:13:04;;;;;;;13.88;4.72;;;;;;;15.34;78.37;100278.00;5084678;28;20044;-73
2022/10/24 02:15:34;;;;;;;12.13;4.25;;;;;;;15.32;77.89;100270.13;5084441;28;20035;-73
2022/10/24 02:18:00;;;;;;;14.60;4.50;;;;;;;15.33;77.30;100266.63;5084602;28;20278;-73
2022/10/24 02:20:45;;;;;;;11.60;4.40;;;;;;;15.34;78.65;100270.13;5084452;28;20023;-73
2022/10/24 02:23:13;;;;;;;11.13;3.70;;;;;;;15.35;77.06;100274.50;5084328;28;20024;-73
2022/10/24 02:25:43;;;;;;;12.02;3.80;;;;;;;15.35;77.28;100264.88;5084365;28;20901;-73
2022/10/24 02:28:08;;;;;;;;;;;;;;;15.41;79.95;100272.72;5084494;28;20024;-73
2022/10/24 02:30:40;;;;;;;14.03;4.00;;;;;;;15.38;77.40;100270.13;5084329;28;20106;-73
2022/10/24 02:33:07;;;;;;;11.32;3.97;;;;;;;15.36;76.83;100268.38;5084084;28;20274;-73
2022/10/24 02:35:35;;;;;;;13.43;4.30;;;;;;;15.35;76.53;100266.63;5084490;28;20023;-72
2022/10/24 02:38:14;;;;;;;11.43;3.60;;;;;;;15.35;76.95;100264.88;5084034;28;20031;-73
2022/10/24 02:40:43;;;;;;;12.68;4.00;;;;;;;15.35;76.84;100264.88;5083645;28;20036;-73
2022/10/24 02:43:10;;;;;;;13.02;4.00;;;;;;;15.32;77.11;100264.88;5083819;28;20024;-73
2022/10/24 02:45:37;;;;;;;9.43;3.35;;;;;;;15.30;76.77;100270.13;5083715;28;20020;-73
2022/10/24 02:48:07;;;;;;;12.15;3.63;;;;;;;15.33;76.24;100265.78;5083768;28;20044;-65
2022/10/24 02:50:34;;;;;;;9.20;3.50;;;;;;;15.35;75.77;100264.00;5084182;28;20074;-66
2022/10/24 02:52:59;;;;;;;9.80;3.55;;;;;;;15.36;75.97;100264.00;5083747;28;20047;-65
2022/10/24 02:55:25;;;;;;;10.52;3.80;;;;;;;15.36;75.59;100265.75;5083598;28;20032;-66
2022/10/24 02:57:50;;;;;;;10.65;3.20;;;;;;;15.39;75.13;100269.22;5083627;28;20066;-65
2022/10/24 03:00:17;;;;;;;10.55;3.50;;;;;;;15.40;74.66;100268.34;5083483;28;20281;-65
2022/10/24 03:02:42;;;;;;;8.25;3.00;;;;;;;15.43;74.98;100264.84;5083632;28;20029;-66
2022/10/24 03:05:08;;;;;;;9.85;3.30;;;;;;;15.42;75.37;100261.31;5083484;28;20027;-66
2022/10/24 03:07:33;;;;;;;10.27;3.30;;;;;;;15.40;75.30;100270.97;5083255;28;20044;-66
2022/10/24 03:09:59;;;;;;;10.45;3.05;;;;;;;15.38;75.66;100275.38;5083395;28;20021;-66
2022/10/24 03:12:25;;;;;;;10.02;3.15;;;;;;;15.39;75.41;100279.72;5081897;28;20024;-65
2022/10/24 03:14:50;;;;;;;8.85;3.15;;;;;;;15.38;75.45;100271.84;5082087;28;20008;-66
2022/10/24 03:17:16;;;;;;;12.32;3.72;;;;;;;15.36;75.41;100274.50;5098717;28;20024;-65
2022/10/24 03:19:41;;;;;;;8.02;2.88;;;;;;;15.36;75.56;100269.25;5083165;28;20275;-66
2022/10/24 03:22:06;;;;;;;8.60;3.20;;;;;;;15.39;75.61;100274.47;5083036;28;20016;-66
2022/10/24 03:24:32;;;;;;;10.65;3.03;;;;;;;15.39;75.15;100268.34;5083239;28;20036;-66
2022/10/24 03:26:57;;;;;;;8.32;3.20;;;;;;;15.36;75.29;100269.25;5083317;28;20017;-66
2022/10/24 03:29:22;;;;;;;7.30;2.97;;;;;;;15.35;75.53;100269.25;5082713;28;20222;-66
2022/10/24 03:31:48;;;;;;;8.60;3.20;;;;;;;15.31;75.78;100268.41;5082912;28;20027;-65
2022/10/24 03:34:13;;;;;;;11.27;2.85;;;;;;;15.30;76.08;100269.28;5082965;28;20046;-65
2022/10/24 03:36:38;;;;;;;9.65;3.53;;;;;;;15.28;75.71;100265.81;5083034;28;20031;-65
2022/10/24 03:39:03;;;;;;;10.90;3.30;;;;;;;15.25;75.95;100266.69;5082857;28;20021;-65
2022/10/24 03:41:29;;;;;;;10.73;3.40;;;;;;;15.26;75.72;100260.53;5082993;28;20322;-66
2022/10/24 03:43:55;;;;;;;10.77;3.17;;;;;;;15.26;76.27;100264.91;5082894;28;20044;-66
2022/10/24 03:46:20;;;;;;;8.02;3.30;;;;;;;15.25;76.25;100266.69;5082813;28;20286;-66
2022/10/24 03:48:45;;;;;;;7.78;3.10;;;;;;;15.24;76.10;100251.81;5082822;28;20028;-66
2022/10/24 03:51:10;;;;;;;10.82;3.60;;;;;;;15.24;75.84;100249.19;5082648;28;20020;-66
2022/10/24 03:53:36;;;;;;;8.68;3.17;;;;;;;15.25;76.18;100242.16;5082134;28;20028;-66
2022/10/24 03:56:02;;;;;;;15.70;4.07;;;;;;;15.25;75.83;100250.03;5082870;28;20025;-66
2022/10/24 03:58:27;;;;;;;9.55;3.60;;;;;;;15.26;75.96;100247.41;5082724;28;20069;-73
2022/10/24 04:00:55;;;;;;;12.43;3.60;;;;;;;15.27;76.05;100258.81;5082686;28;20028;-72
2022/10/24 04:03:21;;;;;;;7.93;3.08;;;;;;;15.26;76.45;100257.03;5081347;28;20016;-73
2022/10/24 04:05:46;;;;;;;11.98;3.40;;;;;;;15.25;76.40;100263.16;5082747;28;20222;-73
2022/10/24 04:08:11;;;;;;;8.73;3.20;;;;;;;15.24;76.26;100256.19;5082509;28;20032;-73
2022/10/24 04:10:37;;;;;;;11.18;3.55;;;;;;;15.25;76.11;100266.69;5082602;28;20039;-72
2022/10/24 04:13:02;;;;;;;10.85;3.35;;;;;;;15.26;75.97;100265.78;5082622;28;20044;-72
2022/10/24 04:15:27;;;;;;;12.18;3.08;;;;;;;15.26;76.33;100263.16;5082436;28;20074;-73
2022/10/24 04:17:53;;;;;;;9.07;2.83;;;;;;;15.27;76.42;100256.19;5082580;28;20044;-72
2022/10/24 04:20:19;;;;;;;8.10;2.67;;;;;;;15.27;76.14;100259.66;5082280;28;20046;-73
2022/10/24 04:22:46;;;;;;;13.40;3.00;;;;;;;15.27;76.04;100257.03;5082420;28;20088;-72
2022/10/24 04:25:12;;;;;;;8.18;2.88;;;;;;;15.26;76.42;100259.66;5082197;28;20039;-73
2022/10/24 04:27:39;;;;;;;11.60;2.97;;;;;;;15.24;76.19;100246.56;5082359;28;20100;-66
2022/10/24 04:30:10;;;;;;;11.13;2.78;;;;;;;15.25;75.74;100242.16;5082237;28;20063;-66
2022/10/24 04:32:36;;;;;;;8.35;2.53;;;;;;;15.25;75.98;100247.41;5081647;28;20020;-66
2022/10/24 04:35:02;;;;;;;10.50;2.60;;;;;;;15.27;75.32;100238.66;5082098;28;20028;-66
2022/10/24 04:37:28;;;;;;;10.07;2.70;;;;;;;15.30;75.00;100245.66;5082129;28;20247;-66
2022/10/24 04:39:53;;;;;;;9.82;2.38;;;;;;;15.35;74.36;100246.50;5097887;28;20173;-66
2022/10/24 04:42:20;;;;;;;10.43;2.50;;;;;;;15.34;75.00;100255.25;5082210;28;20074;-66
2022/10/24 04:44:45;;;;;;;6.15;2.17;;;;;;;15.30;75.29;100241.25;5082062;28;20051;-66
2022/10/24 04:47:10;;;;;;;7.95;2.17;;;;;;;15.30;75.13;100248.28;5082038;28;20096;-66
2022/10/24 04:49:36;;;;;;;10.00;2.45;;;;;;;15.33;74.77;100244.78;5082116;28;20031;-65
2022/10/24 04:52:01;;;;;;;10.30;2.78;;;;;;;15.33;75.26;100258.75;5082305;28;20184;-66
2022/10/24 04:54:26;;;;;;;12.10;2.88;;;;;;;15.33;75.17;100250.88;5082149;28;20035;-66
2022/10/24 04:56:52;;;;;;;7.43;2.67;;;;;;;15.34;75.62;100255.25;5082032;28;20097;-66
2022/10/24 04:59:17;;;;;;;6.60;2.13;;;;;;;15.33;75.83;100253.50;5081975;28;20047;-66
2022/10/24 05:01:42;;;;;;;8.48;2.35;;;;;;;15.33;75.73;100256.13;5080734;28;20021;-65
2022/10/24 05:04:08;;;;;;;8.75;2.78;;;;;;;15.33;75.43;100256.13;5083952;28;20048;-66
2022/10/24 05:06:33;;;;;;;15.02;2.83;;;;;;;15.33;75.95;100247.41;5084595;28;20024;-66
2022/10/24 05:08:59;;;;;;;11.20;2.63;;;;;;;15.36;75.54;100242.13;5101488;28;20195;-66
2022/10/24 05:11:24;;;;;;;8.10;2.40;;;;;;;15.36;75.63;100247.38;5085473;28;20096;-66
2022/10/24 05:13:49;;;;;;;10.45;2.10;;;;;;;15.36;75.50;100253.50;5085771;28;20267;-66
2022/10/24 05:16:15;;;;;;;9.20;2.55;;;;;;;15.36;75.55;100243.00;5085656;28;20297;-66
2022/10/24 05:18:40;;;;;;;9.60;2.65;;;;;;;15.35;75.84;100259.66;5085657;28;20366;-66
2022/10/24 05:21:05;;;;;;;6.88;2.30;;;;;;;15.35;75.82;100261.38;5085532;28;20263;-66
2022/10/24 05:23:31;;;;;;;10.10;2.40;;;;;;;15.34;76.39;100267.50;5085523;28;20083;-66
2022/10/24 05:25:56;;;;;;;9.55;2.58;;;;;;;15.34;76.65;100265.75;5085240;28;20263;-66
2022/10/24 05:28:21;;;;;;;8.60;2.25;;;;;;;15.35;76.56;100269.25;5085531;28;20259;-66
2022/10/24 05:30:47;;;;;;;10.50;2.47;;;;;;;15.34;76.63;100271.00;5085232;28;20032;-66
2022/10/24 05:33:12;;;;;;;8.23;2.58;;;;;;;15.37;76.71;100281.50;5085231;28;20274;-66
2022/10/24 05:35:37;;;;;;;12.70;2.95;;;;;;;15.40;76.56;100276.22;5085356;28;20270;-65
2022/10/24 05:38:03;;;;;;;10.55;3.00;;;;;;;15.41;76.32;100275.34;5085279;28;20092;-66
2022/10/24 05:40:29;;;;;;;12.30;2.50;;;;;;;15.41;76.51;100271.84;5085224;28;20094;-66
2022/10/24 05:42:55;;;;;;;9.98;2.85;;;;;;;15.41;76.44;100277.09;5085351;28;20210;-66
2022/10/24 05:45:20;;;;;;;8.30;2.47;;;;;;;15.43;76.58;100283.22;5085076;28;20325;-67
2022/10/24 05:47:45;;;;;;;11.75;2.38;;;;;;;15.45;76.20;100282.34;5084807;28;20032;-66
2022/10/24 05:50:11;;;;;;;10.18;2.88;;;;;;;15.49;75.86;100277.91;5084703;28;20044;-66
2022/10/24 05:52:37;;;;;;;11.95;2.33;;;;;;;15.50;75.96;100278.78;5084813;28;20096;-66
2022/10/24 05:55:06;;;;;;;9.90;2.50;;;;;;;15.50;76.15;100274.44;5084753;28;20031;-66
2022/10/24 05:57:32;;;;;;;13.40;2.55;;;;;;;15.51;75.68;100278.81;5084925;28;20013;-73
2022/10/24 05:59:57;;;;;;;10.82;2.63;;;;;;;15.52;75.87;100274.41;5084824;28;20028;-71
2022/10/24 06:02:23;;;;;;;9.93;2.20;;;;;;;15.51;75.67;100276.19;5084681;28;20068;-72
2022/10/24 06:04:49;;;;;;;13.07;2.38;;;;;;;15.49;75.71;100283.19;5084887;28;20071;-72
2022/10/24 06:07:16;;;;;;;13.63;2.53;;;;;;;15.49;75.24;100283.19;5084631;28;20052;-73
2022/10/24 06:09:41;;;;;;;10.07;2.72;;;;;;;15.49;75.69;100285.81;5084765;28;20286;-73
2022/10/24 06:12:08;;;;;;;11.40;2.35;;;;;;;15.47;75.13;100285.81;5084575;28;20040;-73
2022/10/24 06:14:34;;;;;;;15.70;2.35;;;;;;;15.47;75.51;100282.31;5084300;28;20039;-73
2022/10/24 06:17:00;;;;;;;7.40;2.10;;;;;;;15.44;75.89;100298.97;5084200;28;20263;-73
2022/10/24 06:19:25;;;;;;;8.70;2.28;;;;;;;15.45;75.92;100294.56;5084482;28;20028;-73
2022/10/24 06:21:50;;;;;;;7.20;2.30;;;;;;;15.43;76.23;100298.97;5084813;28;20031;-73
2022/10/24 06:24:15;;;;;;;10.80;2.72;;;;;;;15.40;76.29;100306.88;5084200;28;20225;-73
2022/10/24 06:26:41;;;;;;;13.30;2.80;;;;;;;15.37;76.47;100299.00;5084222;28;20025;-73
2022/10/24 06:29:06;;;;;;;10.10;2.03;;;;;;;15.33;76.75;100305.16;5084599;28;20047;-73
2022/10/24 06:31:34;;;;;;;10.75;2.50;;;;;;;15.29;76.80;100299.91;5084161;28;20324;-73
2022/10/24 06:33:59;;;;;;;14.10;2.72;;;;;;;15.26;77.32;100299.03;5084116;28;20021;-72
2022/10/24 06:36:25;;;;;;;10.43;2.65;;;;;;;15.25;77.07;100295.56;5084091;28;20089;-73
2022/10/24 06:38:50;;;;;;;10.15;2.35;;;;;;;15.25;77.05;100302.53;5084055;28;20074;-73
2022/10/24 06:41:16;;;;;;;8.07;2.08;;;;;;;15.24;77.30;100311.31;5083988;28;20044;-73
2022/10/24 06:43:42;;;;;;;10.02;2.20;;;;;;;15.22;77.28;100319.19;5083956;28;20062;-73
2022/10/24 06:46:09;;;;;;;9.18;2.67;;;;;;;15.20;77.37;100320.06;5083885;28;20029;-73
2022/10/24 06:48:35;;;;;;;13.85;2.50;;;;;;;15.19;77.82;100327.06;5083736;28;20103;-73
2022/10/24 06:51:02;;;;;;;10.50;2.35;;;;;;;15.19;77.60;100347.19;5083892;28;20263;-73
2022/10/24 06:53:27;;;;;;;11.82;2.20;;;;;;;15.15;77.82;100333.22;5083767;28;20191;-73
2022/10/24 06:55:53;;;;;;;15.95;2.58;;;;;;;15.15;77.73;100341.09;5083818;28;20087;-73
2022/10/24 06:58:18;;;;;;;9.40;2.33;;;;;;;15.16;77.73;100331.47;5083656;28;20028;-73
2022/10/24 07:00:43;;;;;;;10.38;2.33;;;;;;;15.16;77.86;100350.69;5083618;28;20028;-71
2022/10/24 07:03:13;;;;;;;13.07;2.67;;;;;;;15.20;78.19;100351.56;5083410;28;20044;-73
2022/10/24 07:05:39;;;;;;;12.45;2.20;;;;;;;15.25;77.98;100352.41;5082392;28;20025;-73
2022/10/24 07:08:04;;;;;;;11.13;2.75;;;;;;;15.23;79.02;100360.28;5083280;28;20085;-65
2022/10/24 07:10:29;;;;;;;12.65;2.55;;;;;;;15.20;79.52;100357.69;5083563;28;20152;-65
2022/10/24 07:12:55;;;;;;;9.48;1.95;;;;;;;15.16;79.80;100353.31;5083535;28;20027;-65
2022/10/24 07:15:20;;;;;;;11.00;2.30;;;;;;;15.12;80.22;100359.47;5083167;28;20306;-66
2022/10/24 07:17:45;;;;;;;12.55;2.25;;;;;;;15.06;80.59;100365.63;5083206;28;20040;-66
2022/10/24 07:20:12;;;;;;;11.82;2.08;;;;;;;15.03;81.15;100362.09;5083120;28;20032;-66
2022/10/24 07:22:38;;;;;;;15.48;2.28;;;;;;;15.00;81.60;100370.00;5083207;28;20024;-66
2022/10/24 07:25:05;;;;;;;10.82;2.15;;;;;;;14.98;81.58;100377.88;5083112;28;20032;-66
2022/10/24 07:27:30;;;;;;;10.65;2.20;;;;;;;14.98;81.90;100379.63;5082948;28;20275;-66
2022/10/24 07:29:56;;;;;;;12.98;2.33;;;;;;;14.99;81.98;100391.84;5082885;28;20060;-66
2022/10/24 07:32:21;;;;;;;9.95;1.88;;;;;;;15.01;82.26;100396.22;5083002;28;20017;-66
2022/10/24 07:34:47;;;;;;;17.85;2.30;;;;;;;15.03;82.17;100401.47;5082968;28;20219;-66
2022/10/24 07:37:14;;;;;;;11.13;2.20;;;;;;;15.04;82.17;100396.22;5083175;28;20263;-73
2022/10/24 07:39:39;;;;;;;10.40;2.40;;;;;;;15.07;82.02;100397.97;5083009;28;20054;-73
2022/10/24 07:42:04;;;;;;;9.85;2.40;;;;;;;15.08;81.34;100395.31;5081857;28;20016;-73
2022/10/24 07:44:30;;;;;;;11.35;2.33;;;;;;;15.10;81.17;100398.81;5082866;28;20041;-74
2022/10/24 07:46:55;;;;;;;12.45;2.53;;;;;;;15.14;81.28;100410.19;5082812;28;20020;-73
2022/10/24 07:49:20;;;;;;;15.13;2.65;;;;;;;15.21;80.60;100411.06;5082823;28;20052;-73
2022/10/24 07:51:45;;;;;;;12.73;2.20;;;;;;;15.27;79.89;100419.78;5082939;28;20059;-73
2022/10/24 07:54:11;;;;;;;10.52;2.22;;;;;;;15.29;80.04;100440.78;5082786;28;20028;-73
2022/10/24 07:56:36;;;;;;;13.98;2.03;;;;;;;15.32;80.60;100438.13;5082826;28;20023;-73
2022/10/24 07:59:02;;;;;;;13.15;2.50;;;;;;;15.32;80.23;100438.13;5082735;28;20058;-72
2022/10/24 08:01:28;;;;;;;10.02;2.13;;;;;;;15.34;80.25;100451.25;5082649;28;20277;-72
2022/10/24 08:03:54;;;;;;;13.07;2.13;;;;;;;15.36;79.72;100447.75;5082845;28;20039;-72
2022/10/24 08:06:27;;;;;;;9.02;1.83;;;;;;;15.34;79.65;100441.66;5082544;28;20082;-66
2022/10/24 08:08:52;;;;;;;12.48;2.10;;;;;;;15.32;79.69;100440.75;5082312;28;20048;-66
2022/10/24 08:11:26;;;;;;;8.73;1.80;;;;;;;15.30;80.13;100443.38;5082539;28;20024;-66
2022/10/24 08:13:53;;;;;;;10.98;2.08;;;;;;;15.32;80.22;100455.66;5082600;28;20016;-66
2022/10/24 08:16:20;;;;;;;11.95;2.35;;;;;;;15.33;80.16;100453.00;5082637;28;20067;-66
2022/10/24 08:18:46;;;;;;;12.15;2.08;;;;;;;15.35;80.15;100461.78;5082596;28;20031;-66
2022/10/24 08:21:14;;;;;;;12.52;2.08;;;;;;;15.37;80.07;100464.41;5082368;28;20024;-66
2022/10/24 08:23:43;;;;;;;10.57;2.05;;;;;;;15.41;80.18;100469.63;5082527;28;20028;-65
2022/10/24 08:26:12;;;;;;;13.73;2.08;;;;;;;15.47;79.61;100472.22;5082185;28;20074;-66
2022/10/24 08:28:38;;;;;;;13.23;2.13;;;;;;;15.52;79.75;100474.84;5082144;28;20273;-66
2022/10/24 08:31:06;;;;;;;13.10;2.30;;;;;;;15.54;79.65;100470.47;5082235;28;20049;-66
2022/10/24 08:33:32;;;;;;;12.57;2.00;;;;;;;15.58;79.90;100468.69;5082642;28;20074;-66
2022/10/24 08:36:01;;;;;;;11.10;2.10;;;;;;;15.59;78.31;100470.47;5082391;28;20048;-67
2022/10/24 08:38:27;;;;;;;9.52;1.90;;;;;;;15.60;78.83;100482.72;5083419;28;20028;-66
2022/10/24 08:40:54;;;;;;;7.95;2.10;;;;;;;15.56;78.27;100467.84;5102016;28;20208;-66
2022/10/24 08:43:19;;;;;;;15.80;2.17;;;;;;;15.51;78.63;100481.00;5086220;28;20024;-66
2022/10/24 08:46:04;;;;;;;8.10;1.65;;;;;;;15.47;79.55;100489.75;5086128;28;20035;-66
2022/10/24 08:48:42;;;;;;;12.15;2.20;;;;;;;15.45;79.40;100484.50;5086070;28;20021;-66
2022/10/24 08:51:24;;;;;;;11.98;1.98;;;;;;;15.46;79.43;100486.22;5073323;28;20024;-66
2022/10/24 08:53:52;;;;;;;12.57;2.25;;;;;;;15.48;79.18;100486.22;5086013;28;20270;-66
2022/10/24 08:56:18;;;;;;;15.68;3.00;;;;;;;15.48;79.61;100483.59;5085877;28;20064;-66
2022/10/24 08:58:45;;;;;;;13.25;2.63;;;;;;;15.51;77.84;100487.97;5085858;28;20089;-66
2022/10/24 09:01:36;;;;;;;12.20;2.00;;;;;;;15.54;78.05;100493.22;5085823;28;20217;-65
2022/10/24 09:04:06;;;;;;;13.57;2.00;;;;;;;15.56;78.07;100491.47;5084624;28;20032;-66
2022/10/24 09:06:31;;;;;;;8.27;1.80;;;;;;;15.60;77.39;100498.47;5085865;28;20024;-73
2022/10/24 09:08:59;;;;;;;13.15;1.80;;;;;;;15.63;75.90;100498.47;5085608;28;20030;-73
2022/10/24 09:11:50;;;;;;;9.23;2.35;;;;;;;15.67;76.90;100494.94;5085548;28;20091;-72
2022/10/24 09:14:18;;;;;;;10.43;2.05;;;;;;;15.71;76.53;100485.28;5080546;28;20032;-74
2022/10/24 09:16:48;;;;;;;14.13;2.25;;;;;;;15.73;76.81;100494.94;5085539;28;20176;-73
2022/10/24 09:19:18;;;;;;;8.88;1.88;;;;;;;15.75;76.67;100501.03;5085610;28;20108;-73
2022/10/24 09:21:44;;;;;;;9.85;2.00;;;;;;;15.75;76.49;100503.66;5085465;28;20080;-74
2022/10/24 09:24:31;;;;;;;12.60;1.90;;;;;;;15.79;77.05;100509.81;5085445;28;20172;-73
2022/10/24 09:26:59;;;;;;;13.45;1.95;;;;;;;15.82;77.46;100515.06;5085169;28;20051;-73
2022/10/24 09:29:28;;;;;;;11.02;1.90;;;;;;;15.85;77.70;100522.06;5085354;28;20088;-73
2022/10/24 09:31:54;;;;;;;9.68;1.73;;;;;;;15.90;75.98;100512.41;5085341;28;20049;-74
2022/10/24 09:34:19;;;;;;;9.38;1.92;;;;;;;15.91;75.98;100527.28;5085040;28;20143;-72
2022/10/24 09:36:45;;;;;;;10.63;1.92;;;;;;;15.95;75.71;100515.91;5085340;28;20148;-67
2022/10/24 09:39:22;;;;;;;12.73;2.08;;;;;;;15.98;75.83;100516.75;5085257;28;20081;-66
2022/10/24 09:41:48;;;;;;;11.20;2.00;;;;;;;16.02;75.00;100537.75;5085139;28;20263;-66
2022/10/24 09:44:30;;;;;;;10.55;2.22;;;;;;;16.04;75.89;100536.88;5084999;28;20215;-66
2022/10/24 09:46:56;;;;;;;13.43;2.45;;;;;;;16.07;75.23;100538.63;5084951;28;20092;-66
2022/10/24 09:49:30;;;;;;;14.93;2.20;;;;;;;16.10;75.55;100539.47;5084828;28;20016;-66
2022/10/24 09:52:15;;;;;;;17.38;2.50;;;;;;;16.14;75.41;100549.09;5084547;28;20055;-65
2022/10/24 09:54:42;;;;;;;12.40;1.95;;;;;;;16.15;75.35;100540.34;5084961;28;20083;-66
2022/10/24 09:57:10;;;;;;;14.82;2.72;;;;;;;16.19;75.20;100545.59;5084826;28;20031;-65
2022/10/24 09:59:43;;;;;;;12.63;2.40;;;;;;;16.23;75.56;100548.19;5084847;28;20028;-66
2022/10/24 10:02:23;;;;;;;15.07;2.50;;;;;;;16.27;74.89;100549.06;5084821;28;20016;-66
2022/10/24 10:05:13;;;;;;;16.30;2.17;;;;;;;16.26;75.26;100548.16;5084866;28;20164;-66
2022/10/24 10:07:41;;;;;;;13.27;2.13;;;;;;;16.26;74.81;100553.41;5084513;28;20028;-66
2022/10/24 10:10:32;;;;;;;13.20;2.55;;;;;;;16.31;75.67;100562.19;5084505;28;20191;-66
2022/10/24 10:13:06;;;;;;;9.52;2.58;;;;;;;16.31;74.08;100563.94;5084594;28;20017;-66
2022/10/24 10:15:31;;;;;;;12.80;2.42;;;;;;;16.30;73.70;100559.56;5083421;28;20130;-66
2022/10/24 10:18:01;;;;;;;11.43;2.33;;;;;;;16.24;74.27;100562.22;5084565;28;20283;-66
2022/10/24 10:20:40;;;;;;;13.85;3.30;;;;;;;16.16;74.11;100568.38;5084494;28;20160;-66
2022/10/24 10:23:24;;;;;;;16.35;2.25;;;;;;;16.16;74.58;100584.16;5084170;28;20043;-66
2022/10/24 10:26:01;;;;;;;11.77;2.17;;;;;;;16.26;73.67;100586.75;5084145;28;20013;-65
2022/10/24 10:28:26;;;;;;;14.00;2.53;;;;;;;16.40;74.81;100574.41;5071468;28;20170;-66
2022/10/24 10:30:58;;;;;;;13.52;2.40;;;;;;;16.57;73.96;100583.97;5084384;28;20056;-65
2022/10/24 10:33:40;;;;;;;12.60;2.15;;;;;;;16.69;73.26;100591.78;5084123;28;20028;-66
2022/10/24 10:36:18;;;;;;;10.95;2.33;;;;;;;16.79;72.12;100585.59;5084141;28;20253;-66
2022/10/24 10:39:28;;;;;;;16.60;3.27;;;;;;;16.83;72.61;100589.09;5083036;28;20036;-73
2022/10/24 10:42:07;;;;;;;12.85;2.63;;;;;;;16.77;72.24;100595.25;5047027;28;20088;-73
2022/10/24 10:45:01;;;;;;;13.30;2.45;;;;;;;16.71;72.51;100600.53;5083891;28;20021;-73
2022/10/24 10:47:36;;;;;;;14.95;2.55;;;;;;;16.63;72.50;100611.13;5083707;28;20044;-74
2022/10/24 10:50:20;;;;;;;11.45;2.10;;;;;;;16.57;73.43;100615.53;5082657;28;20085;-72
2022/10/24 10:52:50;;;;;;;11.95;2.67;;;;;;;16.40;76.44;100632.25;5082684;28;20051;-74
2022/10/24 10:55:18;;;;;;;;;;;;;;;16.32;76.31;100632.28;5084196;28;20028;-74
2022/10/24 10:58:02;;;;;;;10.35;2.40;;;;;;;15.98;78.06;100621.88;5083811;28;19911;-75
2022/10/24 11:00:49;;;;;;;10.60;2.53;;;;;;;15.77;80.39;100621.88;5083691;28;20023;-75
2022/10/24 11:03:33;;;;;;;12.20;2.30;;;;;;;15.59;81.96;100631.53;5083343;28;20048;-73
2022/10/24 11:06:18;;;;;;;10.00;2.65;;;;;;;15.45;83.16;100630.66;5082465;28;20100;-74
2022/10/24 11:08:58;;;;;;;8.63;2.00;;;;;;;15.37;82.83;100635.03;5083353;28;20032;-74
2022/10/24 11:11:30;;;;;;;11.82;2.38;;;;;;;15.32;84.54;100639.41;5083302;28;20066;-73
2022/10/24 11:14:33;;;;;;;13.13;2.63;;;;;;;15.34;85.44;100630.66;5083281;28;20043;-74
2022/10/24 11:17:05;;;;;;;12.73;3.03;;;;;;;15.43;85.92;100633.28;5083744;28;20028;-66
2022/10/24 11:19:44;;;;;;;11.85;2.72;;;;;;;15.59;85.16;100634.16;5069944;28;20024;-67
2022/10/24 11:22:19;;;;;;;10.38;2.42;;;;;;;15.78;85.01;100637.66;5083172;28;20027;-66
2022/10/24 11:24:54;;;;;;;13.63;2.60;;;;;;;15.98;84.60;100634.13;5083379;28;20030;-67
2022/10/24 11:27:27;;;;;;;14.63;2.90;;;;;;;16.20;85.22;100634.09;5083030;28;20049;-66
2022/10/24 11:30:03;;;;;;;13.98;2.88;;;;;;;16.34;80.92;100634.91;5083208;28;20047;-66